createdAt,value
2023-03-27T00:00:46.359Z,213872.00
2023-03-27T00:06:51.726Z,213864.00
2023-03-27T00:12:54.845Z,213852.00
2023-03-27T00:18:57.260Z,213811.00
2023-03-27T00:24:59.722Z,213762.00
2023-03-27T00:31:02.690Z,213748.00
2023-03-27T00:37:06.064Z,213714.00
2023-03-27T00:43:43.104Z,213645.00
2023-03-27T00:49:46.324Z,213597.00
2023-03-27T00:55:52.061Z,213555.00
2023-03-27T01:01:54.647Z,213501.00
2023-03-27T01:08:00.465Z,213489.00
2023-03-27T01:14:37.656Z,213467.00
2023-03-27T01:21:08.140Z,213439.00
2023-03-27T01:27:42.658Z,213419.00
2023-03-27T01:34:02.009Z,213404.00
2023-03-27T01:40:19.348Z,213404.00
2023-03-27T01:46:33.346Z,213404.00
2023-03-27T01:52:40.722Z,213419.00
2023-03-27T01:58:47.262Z,213447.00
2023-03-27T02:04:59.067Z,213404.00
2023-03-27T02:11:01.938Z,213404.00
2023-03-27T02:17:10.963Z,213461.00
2023-03-27T02:23:14.898Z,213314.00
2023-03-27T02:29:28.116Z,213206.00
2023-03-27T02:35:46.554Z,213067.00
2023-03-27T02:42:00.125Z,212975.00
2023-03-27T02:48:27.681Z,212967.00
2023-03-27T02:54:40.649Z,212939.00
2023-03-27T03:00:49.362Z,212925.00
2023-03-27T03:07:07.140Z,212891.00
2023-03-27T03:13:10.213Z,212856.00
2023-03-27T03:19:13.205Z,212780.00
2023-03-27T03:25:18.356Z,212735.00
2023-03-27T03:31:23.083Z,212726.00
2023-03-27T03:37:28.979Z,212700.00
2023-03-27T03:43:33.706Z,212700.00
2023-03-27T03:49:36.361Z,212680.00
2023-03-27T03:55:38.953Z,212666.00
2023-03-27T04:01:41.498Z,212632.00
2023-03-27T04:07:46.159Z,212569.00
2023-03-27T04:14:14.477Z,212563.00
2023-03-27T04:20:19.249Z,212521.00
2023-03-27T04:26:26.793Z,212588.00
2023-03-27T04:32:48.228Z,212720.00
2023-03-27T04:39:11.241Z,212945.00
2023-03-27T04:45:17.669Z,213254.00
2023-03-27T04:51:23.027Z,215678.00
2023-03-27T04:57:28.147Z,217221.00
2023-03-27T05:03:35.285Z,215714.00
2023-03-27T05:09:47.136Z,215052.00
2023-03-27T05:15:49.653Z,215329.00
2023-03-27T05:21:56.231Z,215636.00
2023-03-27T05:27:58.878Z,216196.00
2023-03-27T05:34:06.409Z,215391.00
2023-03-27T05:40:10.563Z,215253.00
2023-03-27T05:46:14.005Z,214814.00
2023-03-27T05:52:29.493Z,214779.00
2023-03-27T05:58:32.495Z,214988.00
2023-03-27T06:04:36.564Z,215058.00
2023-03-27T06:10:45.321Z,215162.00
2023-03-27T06:16:54.506Z,215463.00
2023-03-27T06:23:15.634Z,215532.00
2023-03-27T06:29:18.807Z,215377.00
2023-03-27T06:35:26.994Z,215532.00
2023-03-27T06:41:33.586Z,215769.00
2023-03-27T06:48:13.473Z,216078.00
2023-03-27T06:54:24.643Z,216268.00
2023-03-27T07:00:34.576Z,217590.00
2023-03-27T07:06:55.040Z,218918.00
2023-03-27T07:12:58.561Z,218294.00
2023-03-27T07:19:02.109Z,217504.00
2023-03-27T07:25:07.340Z,217000.00
2023-03-27T07:31:35.068Z,217235.00
2023-03-27T07:37:43.077Z,217038.00
2023-03-27T07:44:14.815Z,217582.00
2023-03-27T07:50:30.386Z,217488.00
2023-03-27T07:56:34.425Z,217327.00
2023-03-27T08:03:08.159Z,217176.00
2023-03-27T08:09:12.349Z,217305.00
2023-03-27T08:15:15.156Z,217680.00
2023-03-27T08:21:17.678Z,218288.00
2023-03-27T08:27:23.965Z,218272.00
2023-03-27T08:33:30.543Z,217979.00
2023-03-27T08:39:33.383Z,218401.00
2023-03-27T08:45:45.922Z,218601.00
2023-03-27T08:51:57.879Z,219572.00
2023-03-27T08:58:00.972Z,221516.00
2023-03-27T09:04:25.520Z,223026.00
2023-03-27T09:10:35.505Z,223158.00
2023-03-27T09:16:52.039Z,221736.00
2023-03-27T09:23:23.600Z,220595.00
2023-03-27T09:30:19.034Z,220862.00
2023-03-27T09:36:28.671Z,221281.00
2023-03-27T09:42:41.495Z,221492.00
2023-03-27T09:48:52.284Z,220849.00
2023-03-27T09:54:56.545Z,220764.00
2023-03-27T10:01:26.928Z,220908.00
2023-03-27T10:07:35.317Z,221411.00
2023-03-27T10:13:55.115Z,222905.00
2023-03-27T10:20:09.544Z,223919.00
2023-03-27T10:26:22.275Z,224075.00
2023-03-27T10:32:47.738Z,225722.00
2023-03-27T10:39:15.172Z,223868.00
2023-03-27T10:45:32.843Z,224137.00
2023-03-27T10:52:00.267Z,225239.00
2023-03-27T10:58:42.551Z,226019.00
2023-03-27T11:04:56.534Z,227354.00
2023-03-27T11:11:15.072Z,226528.00
2023-03-27T11:17:29.605Z,225067.00
2023-03-27T11:23:56.722Z,224600.00
2023-03-27T11:30:08.751Z,226485.00
2023-03-27T11:36:40.229Z,226079.00
2023-03-27T11:42:51.805Z,224925.00
2023-03-27T11:49:11.424Z,223628.00
2023-03-27T11:55:27.571Z,222745.00
2023-03-27T12:01:45.195Z,222567.00
2023-03-27T12:08:12.424Z,222264.00
2023-03-27T12:15:13.606Z,221427.00
2023-03-27T12:21:30.819Z,221259.00
2023-03-27T12:28:23.718Z,220756.00
2023-03-27T12:34:50.570Z,220487.00
2023-03-27T12:41:29.090Z,220218.00
2023-03-27T12:47:36.322Z,220517.00
2023-03-27T12:53:49.239Z,220579.00
2023-03-27T12:59:55.635Z,220659.00
2023-03-27T13:06:15.258Z,220639.00
2023-03-27T13:12:33.992Z,220659.00
2023-03-27T13:18:52.133Z,220573.00
2023-03-27T13:25:14.033Z,220324.00
2023-03-27T13:31:49.805Z,220087.00
2023-03-27T13:38:15.244Z,219861.00
2023-03-27T13:44:55.225Z,219422.00
2023-03-27T13:51:39.920Z,218717.00
2023-03-27T13:58:07.462Z,217895.00
2023-03-27T14:04:29.258Z,217115.00
2023-03-27T14:11:03.644Z,216761.00
2023-03-27T14:17:19.120Z,216593.00
2023-03-27T14:23:30.344Z,216521.00
2023-03-27T14:30:07.525Z,216543.00
2023-03-27T14:36:16.963Z,216442.00
2023-03-27T14:42:23.067Z,216392.00
2023-03-27T14:48:37.904Z,216458.00
2023-03-27T14:54:52.500Z,216669.00
2023-03-27T15:01:01.766Z,216669.00
2023-03-27T15:07:22.148Z,216577.00
2023-03-27T15:13:39.777Z,216571.00
2023-03-27T15:20:19.281Z,216529.00
2023-03-27T15:26:26.662Z,216529.00
2023-03-27T15:32:42.852Z,216472.00
2023-03-27T15:38:45.697Z,216450.00
2023-03-27T15:44:48.293Z,216392.00
2023-03-27T15:51:01.737Z,216353.00
2023-03-27T15:57:09.768Z,216318.00
2023-03-27T16:03:18.976Z,216196.00
2023-03-27T16:09:28.836Z,216125.00
2023-03-27T16:15:38.193Z,216035.00
2023-03-27T16:21:54.984Z,216078.00
2023-03-27T16:27:59.028Z,216086.00
2023-03-27T16:34:01.621Z,216086.00
2023-03-27T16:40:04.541Z,216100.00
2023-03-27T16:46:11.094Z,216125.00
2023-03-27T16:52:13.509Z,216070.00
2023-03-27T16:58:15.792Z,215987.00
2023-03-27T17:04:18.383Z,215929.00
2023-03-27T17:10:20.574Z,215880.00
2023-03-27T17:16:22.785Z,215777.00
2023-03-27T17:22:26.782Z,215714.00
2023-03-27T17:28:30.389Z,215700.00
2023-03-27T17:34:33.118Z,215678.00
2023-03-27T17:40:38.378Z,215656.00
2023-03-27T17:46:40.876Z,215642.00
2023-03-27T17:52:43.405Z,215623.00
2023-03-27T17:58:49.129Z,215628.00
2023-03-27T18:04:54.665Z,215656.00
2023-03-27T18:10:57.181Z,215656.00
2023-03-27T18:16:59.781Z,215656.00
2023-03-27T18:23:02.549Z,215656.00
2023-03-27T18:29:05.375Z,215615.00
2023-03-27T18:35:10.038Z,215560.00
2023-03-27T18:41:12.367Z,215532.00
2023-03-27T18:47:15.161Z,215532.00
2023-03-27T18:53:17.727Z,215469.00
2023-03-27T18:59:20.199Z,215385.00
2023-03-27T19:05:22.648Z,215348.00
2023-03-27T19:11:25.168Z,215289.00
2023-03-27T19:18:03.534Z,215217.00
2023-03-27T19:24:24.771Z,215162.00
2023-03-27T19:30:27.411Z,215146.00
2023-03-27T19:36:32.619Z,215098.00
2023-03-27T19:42:35.041Z,215092.00
2023-03-27T19:48:37.878Z,215092.00
2023-03-27T19:54:47.333Z,215022.00
2023-03-27T20:00:54.977Z,215008.00
2023-03-27T20:06:59.269Z,215002.00
2023-03-27T20:13:01.779Z,214974.00
2023-03-27T20:19:04.470Z,214966.00
2023-03-27T20:25:07.939Z,214925.00
2023-03-27T20:31:11.968Z,214919.00
2023-03-27T20:37:14.453Z,214889.00
2023-03-27T20:43:35.575Z,214875.00
2023-03-27T20:49:47.777Z,214861.00
2023-03-27T20:55:59.346Z,214827.00
2023-03-27T21:02:03.034Z,214800.00
2023-03-27T21:08:05.633Z,214725.00
2023-03-27T21:14:08.815Z,214648.00
2023-03-27T21:20:11.734Z,214612.00
2023-03-27T21:26:14.233Z,214578.00
2023-03-27T21:32:16.649Z,214523.00
2023-03-27T21:38:19.221Z,214466.00
2023-03-27T21:44:21.602Z,214432.00
2023-03-27T21:50:24.022Z,214363.00
2023-03-27T21:56:27.113Z,214280.00
2023-03-27T22:02:29.479Z,214238.00
2023-03-27T22:08:31.651Z,214185.00
2023-03-27T22:14:33.913Z,214113.00
2023-03-27T22:20:36.383Z,214092.00
2023-03-27T22:26:40.207Z,213983.00
2023-03-27T22:32:43.214Z,213922.00
2023-03-27T22:38:46.790Z,213900.00
2023-03-27T22:44:49.023Z,213844.00
2023-03-27T22:50:55.787Z,213778.00
2023-03-27T22:56:59.506Z,213756.00
2023-03-27T23:03:01.978Z,213728.00
2023-03-27T23:09:04.238Z,213694.00
2023-03-27T23:15:06.948Z,213653.00
2023-03-27T23:21:11.431Z,213617.00
2023-03-27T23:27:13.572Z,213577.00
2023-03-27T23:33:15.833Z,213509.00
2023-03-27T23:39:18.137Z,213467.00
2023-03-27T23:45:20.247Z,213411.00
2023-03-27T23:51:22.824Z,213384.00
2023-03-27T23:57:25.874Z,213344.00
